Key West, FL

12:42 PM EDT on June 22, 2017 (GMT -0400)
Key West High School WeatherSTEM | | Change Station

Elev 0 ft 24.55 °N, 81.78 °W | Updated 15 seconds ago

Scattered Clouds
Scattered Clouds
85.7 °F
Feels Like 99 °F
N
15.0
Wind Variable Wind from ESE

Today
High -- | Low -- °F
--% Chance of Precip.
Yesterday
High -- | Low -- °F
Precip. -- in
Pressure 30.05 in
Visibility 10.0 miles
Clouds Few 1700 ft
Scattered Clouds 5000 ft
Heat Index 99 °F
Dew Point 79 °F
Humidity 80%
Rainfall 0.00 in
Snow Depth Not available.
6:39 AM 8:19 PM
Waning Crescent, 3% visible
METAR KEYW 221553Z 11012KT 10SM FEW017 SCT050 30/26 A3005 RMK AO2 SLP174 T03000261
Pressure 30.05 in
Visibility 10.0 miles
Clouds Few 1700 ft
Scattered Clouds 5000 ft
Heat Index 99 °F
Dew Point 79 °F
Humidity 80%
Rainfall 0.00 in
Snow Depth Not available.
6:39 AM 8:19 PM
Waning Crescent, 3% visible
METAR KEYW 221553Z 11012KT 10SM FEW017 SCT050 30/26 A3005 RMK AO2 SLP174 T03000261

Get Severe Weather Alerts

Thanks for signing up!

Be on the lookout for a verification email in your inbox.

You'll start receiving the daily forecast at 6 AM.

×

10-Day Weather Forecast

Almanac

Astronomy

Jun. 22, 2017 Rise Set
Actual Time
Civil Twilight
Nautical Twilight
Astronomical Twilight
Moon
Length of Visible Light
Length of Day
Tomorrow will be .
, % of the Moon is Illuminated

Today's Extremes

State Highs State Lows

Community

WunderPhotos

Category 6

Welcome to Category 6. This is the collective home for Weather Underground's featured writeups by Dr. Jeff Masters (right), Bob Henson (left), Chris Burt, and other regular contributors.

Nearby

Air Quality

  Air Quality AQ Index Pollutant
Not available.

Snow Depth

Station Depth Elevation

Earthquake Activity

City Distance Mag. Time & Date
Minimum magnitude displayed is 2.5.

Coastal Water Temperatures

Place Temperature

Stations

Nearby Weather Stations

Station Location Temp. Windchill Dew Point Humidity Wind Precip. Elev Updated Type
                   

Watches & Warnings

There are currently no watches in effect.